עמוד ראשי
METAR-TAF:

METAR-TAF

שדות תעופה :

Buffalo Narrows, מניטובה, קנדה

קו רוחב: 55-50N, קו אורך: 108-27W, גובה: 434מטר

תצפית מזג אוויר נוכחית

הדו"ח נערך לפני 32דקות, בשעה 09:34 UTC
רוח 6קשר מכיוון צפון
טמפרטורת 13 צלסיוס
לחות 82%
לחץ 1014 hPa
ראות: 2.0קילומטר
עננים בינוניים בגובה 1300רגל
עננים בינוניים בגובה 2300רגל
אובך

METAR: CYVT 140934Z AUTO 01006KT 1 1/4SM HZ BKN013 BKN023 13/10 A2993 RMK SLP147

זמן: 05:06 (10:06 UTC)

תחזית

הדו"ח נערך לפני 7 שעות ו 55דקות, בשעה 02:11 UTC
תחזית בתוקף מ 14 ב 02 UTC עד 14 ב 04 UTC
רוח 10קשר מכיוון צפון
ראות: 10קילומטר
מעט עננים בגובה 2000רגל
זמנית מ -
14 ב 02 UTC עד 14 ב 04 UTC
ראות: 6.4קילומטר
עננים בינוניים בגובה 2000רגל
עשן

TAF: CYVT 140211Z 1402/1404 36010KT P6SM FEW020 TEMPO 1402/1404 4SM FU BKN020 RMK FCST BASED ON AUTO OBS. NXT FCST BY 141400Z

תצפיות ותחזיות מזג אוויר לגבי יותר מ- 4,000 שדות תעופה ברחבי העולם. דוחות METAR ו- TAF.

התחנות הזמינות מסומנות בנקודות צהובות ואדומות על גבי המפה.

העבר את העכבר לנקודה הצבעונית על מנת לראות את שם התחנה.

לאחר מכן, לחץ כדי לראות את תוכן ואת תחזיות מזג האוויר.

כדי לשנות את המפה: לחץ על הכפתורים הירוקים עם הפלוס השחור כדי להתקרב; על הכפתור הירוק עם המקף כדי להתרחק; או בחיצים הירוקים למפות סמוכות.


METAR-TAF: